Latest Weather Observations for Nerriga

IDN60801

Issued at 2:02 pm EST Friday 29 April 2016 (issued every 30 minutes, with the page automatically refreshed every 10 minutes)

About weather observations | Map of weather stations | Latest weather observations for NSW | Other Formats
Station Details ID: 069128 Name: NERRIGA AWS Lat: -35.11 Lon: 150.08 Height: 622.0 m
Data from the previous 72 hours. | See also: Recent months at Nerriga
Date/Time
EST
Temp
°C
App
Temp
°C
Dew
Point
Rel
Hum
%
Delta-T
°C
Wind Press
QNH
hPa
Press
MSL
hPa
Rain
since 9 am
mm
Dir
 
Spd
km/h
Gust
km/h
Spd
kts
Gust
kts
29/02:00pm 23.9 21.6 9.1 39 8.2 N 11 17 6 9 1019.1 1018.2 0.0
29/01:30pm 22.4 18.8 8.5 41 7.6 N 17 24 9 13 1019.6 1018.7 0.0
29/01:00pm 22.0 19.2 8.5 42 7.3 NNW 13 20 7 11 1019.7 1018.8 0.0
29/12:30pm 22.9 19.7 8.6 40 7.8 N 15 22 8 12 1020.5 1019.6 0.0
29/12:00pm 22.0 18.5 8.9 43 7.2 N 17 24 9 13 1021.0 1020.1 0.0
29/11:30am 22.4 19.8 9.2 43 7.3 N 13 20 7 11 1021.7 1020.8 0.0
29/11:00am 21.1 18.2 9.7 48 6.3 N 15 20 8 11 1022.4 1021.5 0.0
29/10:30am 19.3 16.7 9.2 52 5.5 NNW 13 17 7 9 1022.5 1021.6 0.0
29/10:00am 19.1 16.6 9.6 54 5.2 N 13 17 7 9 1022.9 1022.0 0.0
29/09:30am 17.5 15.4 9.9 61 4.1 N 11 17 6 9 1023.0 1022.1 0.0
29/09:00am 16.5 15.4 10.6 68 3.2 NNW 7 11 4 6 1023.4 1022.6 0.0
29/08:30am 15.0 13.6 11.0 77 2.2 NNW 9 11 5 6 1023.8 1022.9 0.0
29/08:00am 13.5 12.7 11.0 85 1.4 NW 6 7 3 4 1023.9 1023.0 0.0
29/07:30am 11.4 10.8 10.3 93 0.6 NW 4 4 2 2 1023.9 1023.0 0.0
29/07:00am 11.7 11.2 10.8 94 0.5 NW 4 6 2 3 1023.4 1022.6 0.0
29/06:30am 10.9 11.0 10.1 95 0.4 CALM 0 0 0 0 1023.2 1022.4 0.0
29/06:00am 10.7 10.7 9.9 95 0.4 CALM 0 0 0 0 1023.0 1022.1 0.0
29/05:30am 10.4 9.9 9.3 93 0.6 NW 2 2 1 1 1023.0 1022.1 0.0
29/05:00am 10.6 10.5 9.5 93 0.6 CALM 0 0 0 0 1023.0 1022.1 0.0
29/04:30am 11.6 11.7 10.0 90 0.8 CALM 0 0 0 0 1023.0 1022.1 0.0
29/04:00am 11.5 10.6 9.4 87 1.1 NW 4 6 2 3 1023.0 1022.1 0.0
29/03:30am 12.5 11.8 10.0 85 1.3 NW 4 6 2 3 1022.8 1021.9 0.0
29/03:00am 13.0 12.5 10.9 87 1.1 NW 4 6 2 3 1022.9 1022.0 0.0
29/02:30am 12.1 11.8 10.2 88 1.0 NW 2 4 1 2 1023.2 1022.4 0.0
29/02:00am 13.0 12.7 10.0 82 1.6 NW 2 2 1 1 1023.3 1022.5 0.0
29/01:30am 13.8 13.3 10.8 82 1.6 NW 4 6 2 3 1023.4 1022.6 0.0
29/01:00am 13.5 13.1 9.9 79 1.9 NW 2 4 1 2 1023.6 1022.8 0.0
29/12:30am 14.4 13.7 10.2 76 2.3 NW 4 6 2 3 1023.5 1022.7 0.0
29/12:00am 14.0 13.6 9.6 75 2.3 NW 2 4 1 2 1024.1 1023.2 0.0
 
Date/Time
EST
Temp
°C
App
Temp
°C
Dew
Point
Rel
Hum
%
Delta-T
°C
Wind Press
QNH
hPa
Press
MSL
hPa
Rain
since 9 am
mm
Dir
 
Spd
km/h
Gust
km/h
Spd
kts
Gust
kts
28/11:30pm 13.7 13.0 8.7 72 2.6 NW 2 4 1 2 1024.1 1023.2 0.0
28/11:00pm 13.2 12.0 7.9 70 2.7 NW 4 6 2 3 1024.3 1023.4 0.0
28/10:30pm 12.6 12.0 7.3 70 2.7 CALM 0 2 0 1 1024.3 1023.4 0.0
28/10:00pm 12.6 11.1 6.9 68 2.8 NW 4 6 2 3 1024.3 1023.4 0.0
28/09:30pm 12.7 12.2 8.0 73 2.4 CALM 0 0 0 0 1024.3 1023.4 0.0
28/09:00pm 11.9 10.5 7.2 73 2.3 NW 4 6 2 3 1024.0 1023.1 0.0
28/08:30pm 12.6 12.1 7.7 72 2.5 CALM 0 0 0 0 1023.9 1023.0 0.0
28/08:00pm 13.1 12.5 7.5 69 2.8 CALM 0 0 0 0 1023.6 1022.8 0.0
28/07:30pm 13.9 13.0 7.7 66 3.2 NW 2 2 1 1 1023.6 1022.8 0.0
28/07:00pm 15.0 14.1 7.8 62 3.7 NW 2 2 1 1 1023.6 1022.8 0.0
28/06:30pm 14.9 14.2 7.0 59 4.0 CALM 0 0 0 0 1023.4 1022.6 0.0
28/06:00pm 17.1 16.4 6.9 51 5.2 CALM 0 0 0 0 1023.2 1022.4 0.0
28/05:30pm 19.4 17.3 6.8 44 6.5 NW 7 9 4 5 1023.1 1022.2 0.0
28/05:00pm 20.6 17.3 6.5 40 7.3 NW 13 17 7 9 1022.7 1021.8 0.0
28/04:30pm 22.4 19.4 6.2 35 8.5 NW 11 19 6 10 1022.7 1021.8 0.0
28/04:00pm 22.5 19.2 6.3 35 8.5 WNW 13 20 7 11 1022.6 1021.7 0.0
28/03:30pm 22.7 19.4 6.5 35 8.5 WNW 13 20 7 11 1022.7 1021.8 0.0
28/03:00pm 22.9 19.0 7.1 36 8.4 NW 17 24 9 13 1022.6 1021.7 0.0
28/02:30pm 23.1 18.4 6.0 33 9.0 WNW 20 28 11 15 1022.6 1021.7 0.0
28/02:00pm 24.2 19.2 6.5 32 9.4 W 22 33 12 18 1022.4 1021.5 0.0
28/01:30pm 24.1 19.2 6.8 33 9.2 WNW 22 33 12 18 1022.7 1021.8 0.0
28/01:00pm 23.9 20.5 7.5 35 8.8 W 15 22 8 12 1022.9 1022.0 0.0
28/12:30pm 21.9 16.6 6.6 37 8.0 WNW 24 37 13 20 1023.2 1022.4 0.0
28/12:00pm 22.5 19.5 7.5 38 8.0 WNW 13 28 7 15 1023.6 1022.8 0.0
28/11:30am 21.5 19.0 9.7 47 6.5 NW 13 24 7 13 1024.2 1023.3 0.0
28/11:00am 20.2 18.9 11.4 57 5.0 NNW 9 15 5 8 1024.6 1023.8 0.0
28/10:30am 18.4 17.5 11.2 63 4.0 N 7 9 4 5 1024.9 1024.1 0.0
28/10:00am 15.2 14.3 11.4 78 2.1 N 7 11 4 6 1025.2 1024.4 0.0
28/09:30am 12.5 12.4 12.0 97 0.3 N 4 6 2 3 1025.3 1024.5 0.0
28/09:00am 12.1 12.0 12.1 100 0.0 N 4 4 2 2 1025.3 1024.5 0.2
28/08:30am 12.1 12.4 12.1 100 0.0 N 2 4 1 2 1025.2 1024.4 0.2
28/08:00am 11.7 11.1 11.7 100 0.0 N 6 9 3 5 1025.0 1024.2 0.2
28/07:30am 11.6 11.3 11.6 100 0.0 N 4 6 2 3 1024.8 1024.0 0.2
28/07:00am 11.3 11.0 11.3 100 0.0 N 4 6 2 3 1024.4 1023.5 0.2
28/06:30am 11.3 10.6 11.3 100 0.0 N 6 7 3 4 1024.2 1023.3 0.2
28/06:00am 11.4 10.7 11.4 100 0.0 N 6 7 3 4 1024.1 1023.2 0.2
28/05:30am 11.4 10.5 11.4 100 0.0 N 7 9 4 5 1024.2 1023.3 0.2
28/05:00am 11.6 10.8 11.6 100 0.0 N 7 11 4 6 1024.1 1023.2 0.2
28/04:30am 11.5 10.6 11.5 100 0.0 N 7 15 4 8 1024.1 1023.2 0.2
28/04:00am 11.3 10.0 11.3 100 0.0 N 9 13 5 7 1024.1 1023.2 0.0
28/03:30am 11.5 10.6 11.5 100 0.0 N 7 9 4 5 1024.1 1023.2 0.0
28/03:00am 11.2 10.2 10.9 98 0.2 N 7 9 4 5 1024.0 1023.1 0.0
28/02:30am 11.5 11.1 11.0 97 0.3 N 4 6 2 3 1024.2 1023.3 0.0
28/02:00am 12.0 11.1 11.5 97 0.3 N 7 9 4 5 1024.1 1023.2 0.0
28/01:30am 12.3 11.6 11.5 95 0.4 N 6 9 3 5 1024.1 1023.2 0.0
28/01:00am 12.6 12.0 11.7 94 0.5 NNW 6 7 3 4 1024.1 1023.2 0.0
28/12:30am 12.9 12.3 11.6 92 0.7 N 6 7 3 4 1024.3 1023.4 0.0
28/12:00am 12.9 12.2 11.5 91 0.8 N 6 7 3 4 1024.5 1023.6 0.0
 
Date/Time
EST
Temp
°C
App
Temp
°C
Dew
Point
Rel
Hum
%
Delta-T
°C
Wind Press
QNH
hPa
Press
MSL
hPa
Rain
since 9 am
mm
Dir
 
Spd
km/h
Gust
km/h
Spd
kts
Gust
kts
27/11:30pm 13.2 12.9 11.6 90 0.9 WNW 4 6 2 3 1024.7 1023.9 0.0
27/11:00pm 13.4 12.7 11.5 88 1.0 N 6 7 3 4 1024.8 1024.0 0.0
27/10:30pm 13.7 12.8 11.2 85 1.4 N 7 9 4 5 1025.1 1024.3 0.0
27/10:00pm 14.0 13.0 11.0 82 1.6 N 7 11 4 6 1025.2 1024.4 0.0
27/09:30pm 14.5 13.3 10.3 76 2.3 N 7 13 4 7 1025.3 1024.5 0.0
27/09:00pm 15.1 13.6 10.5 74 2.5 N 9 15 5 8 1025.2 1024.4 0.0
27/08:30pm 15.1 13.9 10.3 73 2.6 NNE 7 11 4 6 1025.1 1024.3 0.0
27/08:00pm 15.4 14.9 10.6 73 2.6 NNE 4 7 2 4 1025.0 1024.2 0.0
27/07:30pm 14.5 14.2 10.1 75 2.4 NNE 2 4 1 2 1024.9 1024.1 0.0
27/07:00pm 14.9 14.0 10.5 75 2.4 NNE 6 9 3 5 1024.6 1023.8 0.0
27/06:30pm 15.2 13.2 10.2 72 2.7 NNE 11 13 6 7 1024.2 1023.3 0.0
27/06:00pm 15.4 14.1 6.2 54 4.6 NW 2 6 1 3 1023.9 1023.0 0.0
27/05:30pm 18.3 16.3 6.2 45 6.2 NW 6 7 3 4 1023.6 1022.8 0.0
27/05:00pm 20.3 17.7 6.3 40 7.2 NW 9 13 5 7 1023.4 1022.6 0.0
27/04:30pm 21.5 17.7 5.8 36 8.1 NW 15 20 8 11 1023.3 1022.5 0.0
27/04:00pm 21.8 17.6 5.7 35 8.3 NNW 17 24 9 13 1023.4 1022.6 0.0
27/03:30pm 22.4 18.0 4.9 32 8.9 WNW 17 24 9 13 1023.5 1022.7 0.0
27/03:00pm 22.8 17.9 4.3 30 9.3 NW 19 24 10 13 1023.4 1022.6 0.0
27/02:30pm 23.2 18.6 5.6 32 9.2 WNW 19 28 10 15 1023.4 1022.6 0.0
27/02:00pm 22.4 17.5 4.9 32 8.9 NW 20 28 11 15 1023.5 1022.7 0.0
27/01:30pm 22.2 16.8 6.4 36 8.3 WNW 24 35 13 19 1023.6 1022.8 0.0
27/01:00pm 22.3 18.3 8.4 41 7.5 NNW 19 28 10 15 1024.1 1023.2 0.0
27/12:30pm 21.0 16.3 7.6 42 7.1 NW 22 30 12 16 1024.6 1023.8 0.0
27/12:00pm 20.1 14.6 7.5 44 6.6 NW 26 35 14 19 1025.1 1024.3 0.0
27/11:30am 19.1 16.4 9.0 52 5.5 NNW 13 26 7 14 1025.8 1024.9 0.0
27/11:00am 18.4 16.7 10.0 58 4.6 NNW 9 15 5 8 1026.3 1025.5 0.0
27/10:30am 16.4 14.5 9.1 62 3.9 NNW 9 19 5 10 1026.8 1026.0 0.0
27/10:00am 14.9 13.2 9.7 71 2.8 N 9 15 5 8 1027.5 1026.7 0.0
27/09:30am 12.9 11.3 10.1 83 1.5 N 9 13 5 7 1027.9 1027.1 0.0
27/09:00am 10.5 8.9 8.8 89 0.9 NNE 7 9 4 5 1028.3 1027.5 0.4
27/08:30am 9.6 8.8 9.6 100 0.0 NNE 4 4 2 2 1028.5 1027.7 0.4
27/08:00am 7.9 7.0 7.9 100 0.0 NNE 2 4 1 2 1028.6 1027.8 0.4
27/07:30am 7.0 5.5 7.0 100 0.0 NNE 4 7 2 4 1028.3 1027.5 0.4
27/07:00am 7.2 5.8 7.2 100 0.0 NNE 4 6 2 3 1028.1 1027.3 0.4
27/06:30am 6.6 5.8 6.6 100 0.0 CALM 0 0 0 0 1027.8 1027.0 0.4
27/06:00am 6.4 4.8 6.4 100 0.0 NNE 4 4 2 2 1027.5 1026.7 0.4
27/05:30am 6.4 4.4 6.4 100 0.0 NNE 6 6 3 3 1027.3 1026.4 0.4
27/05:00am 6.5 3.6 6.5 100 0.0 NNE 11 13 6 7 1027.5 1026.7 0.4
27/04:30am 8.1 7.6 8.0 99 0.0 CALM 0 0 0 0 1027.0 1026.2 0.4
27/04:00am 9.5 9.4 9.5 100 0.0 CALM 0 0 0 0 1027.2 1026.3 0.4
27/03:30am 9.5 9.4 9.5 100 0.0 CALM 0 0 0 0 1027.3 1026.4 0.2
27/03:00am 9.2 8.2 8.7 97 0.3 NNE 4 6 2 3 1027.6 1026.8 0.2
27/02:30am 10.9 10.4 10.7 99 0.1 NNE 4 6 2 3 1027.9 1027.1 0.2
27/02:00am 11.2 10.7 10.9 98 0.2 NNE 4 6 2 3 1028.2 1027.4 0.2
27/01:30am 11.8 11.5 11.5 98 0.2 NNE 4 6 2 3 1028.4 1027.6 0.2
27/01:00am 12.0 11.3 11.5 97 0.3 NNE 6 9 3 5 1028.5 1027.7 0.2
27/12:30am 11.5 11.0 10.9 96 0.3 NNE 4 7 2 4 1028.6 1027.8 0.2
27/12:00am 11.7 11.2 10.8 94 0.5 NNE 4 6 2 3 1028.9 1028.1 0.2
 
Date/Time
EST
Temp
°C
App
Temp
°C
Dew
Point
Rel
Hum
%
Delta-T
°C
Wind Press
QNH
hPa
Press
MSL
hPa
Rain
since 9 am
mm
Dir
 
Spd
km/h
Gust
km/h
Spd
kts
Gust
kts
26/11:30pm 12.1 11.3 11.0 93 0.6 NNE 6 7 3 4 1029.0 1028.2 0.2
26/11:00pm 12.3 11.4 11.2 93 0.6 NNE 7 11 4 6 1029.1 1028.3 0.2
26/10:30pm 12.5 11.7 11.6 94 0.5 NNE 7 13 4 7 1029.2 1028.4 0.2
26/10:00pm 12.6 12.1 12.1 97 0.3 NE 6 7 3 4 1029.3 1028.5 0.2
26/09:30pm 12.0 11.2 11.2 95 0.4 NE 6 9 3 5 1029.2 1028.4 0.2
26/09:00pm 12.3 12.0 11.5 95 0.4 NE 4 6 2 3 1029.2 1028.4 0.2
26/08:30pm 13.1 11.3 12.2 94 0.5 NE 13 19 7 10 1029.1 1028.3 0.2
26/08:00pm 13.3 12.0 12.4 94 0.5 NE 11 15 6 8 1029.0 1028.2 0.2
26/07:30pm 13.1 12.7 12.3 95 0.4 ENE 6 9 3 5 1029.1 1028.3 0.2
26/07:00pm 13.5 12.2 12.6 94 0.5 ENE 11 13 6 7 1029.0 1028.2 0.2
26/06:30pm 14.2 13.0 12.8 91 0.8 ENE 11 15 6 8 1028.5 1027.7 0.2
26/06:00pm 15.0 13.7 12.5 85 1.4 ENE 11 13 6 7 1028.2 1027.4 0.2
26/05:30pm 16.5 14.8 12.5 77 2.3 NE 13 17 7 9 1028.0 1027.2 0.2
26/05:00pm 18.1 15.6 11.2 64 3.8 NE 15 19 8 10 1028.0 1027.2 0.2
26/04:30pm 19.5 16.8 10.2 55 5.2 ENE 15 20 8 11 1027.9 1027.1 0.2
26/04:00pm 21.1 18.2 9.7 48 6.3 NNE 15 19 8 10 1027.8 1027.0 0.2
26/03:30pm 21.9 20.1 8.1 41 7.5 N 7 13 4 7 1027.6 1026.8 0.2
26/03:00pm 21.6 20.7 9.2 45 6.8 NNW 4 6 2 3 1027.8 1027.0 0.2
26/02:30pm 21.9 20.5 9.4 45 6.9 N 7 13 4 7 1027.9 1027.1 0.2

Other Formats:

Comma delimited format used in spreadsheet applications
http://www.bom.gov.au/fwo/IDN60801/IDN60801.94943.axf

JavaScript Object Notation format (JSON) in row-major order
http://www.bom.gov.au/fwo/IDN60801/IDN60801.94943.json